Time;durP1;ratioP1;P1;durP2;ratioP2;P2;SDS_P1;SDS_P2;PMS_P1;PMS_P2;Temp;Humidity;BMP_temperature;BMP_pressure;BME280_temperature;BME280_humidity;BME280_pressure;Samples;Min_cycle;Max_cycle;Signal;HPM_P1;HPM_P2
2024/02/20 00:01:02;;;;;;;;;19.00;11.00;;;;;-144.24;100.00;90909.38;5014717;28;70849;-74
2024/02/20 00:03:27;;;;;;;;;15.00;9.67;;;;;-144.24;100.00;90789.88;5019827;28;58427;-75
2024/02/20 00:05:53;;;;;;;;;13.75;8.75;;;;;-144.24;100.00;90838.47;5020529;28;45642;-73
2024/02/20 00:08:18;;;;;;;;;11.33;8.33;;;;;-144.24;100.00;90887.09;5003906;28;47448;-74
2024/02/20 00:10:43;;;;;;;;;12.33;7.00;;;;;-144.24;100.00;90899.25;5018111;28;71584;-73
2024/02/20 00:13:09;;;;;;;;;15.00;10.00;;;;;-144.24;100.00;90650.09;5030380;28;45462;-73
2024/02/20 00:15:34;;;;;;;;;16.25;13.50;;;;;-144.24;100.00;90727.06;5016407;28;45344;-75
2024/02/20 00:17:59;;;;;;;;;14.75;10.50;;;;;-144.24;100.00;90755.44;5015502;28;48498;-73
2024/02/20 00:20:25;;;;;;;;;14.75;10.50;;;;;-144.24;100.00;90757.44;5012496;28;70388;-75
2024/02/20 00:22:50;;;;;;;;;19.00;8.67;;;;;-144.24;100.00;90745.31;5008018;28;46362;-75
2024/02/20 00:25:17;;;;;;;;;14.00;12.00;;;;;-144.24;100.00;90686.56;5004681;28;62248;-74
2024/02/20 00:27:42;;;;;;;;;17.33;10.33;;;;;-144.24;100.00;90759.47;5017186;28;46560;-73
2024/02/20 00:30:10;;;;;;;;;16.25;10.25;;;;;-144.24;100.00;90773.66;5012307;28;45545;-73
2024/02/20 00:32:35;;;;;;;;;14.50;13.75;;;;;-144.24;100.00;90791.88;5018213;28;45302;-73
2024/02/20 00:35:00;;;;;;;;;11.75;10.00;;;;;-144.24;100.00;90943.81;5018517;28;45379;-73
2024/02/20 00:37:26;;;;;;;;;14.00;13.25;;;;;-144.24;100.00;90830.38;5017872;28;46388;-75
2024/02/20 00:39:51;;;;;;;;;16.00;13.50;;;;;-144.24;100.00;90848.59;5018242;28;45302;-73
2024/02/20 00:42:18;;;;;;;;;14.50;10.00;;;;;-144.24;100.00;90814.16;5017365;28;65430;-74
2024/02/20 00:44:44;;;;;;;;;21.25;13.00;;;;;-144.24;100.00;90866.84;5018070;28;45569;-73
2024/02/20 00:47:09;;;;;;;;;18.00;13.00;;;;;-144.24;100.00;91022.81;5016961;28;72705;-75
2024/02/20 00:49:38;;;;;;;;;20.50;16.25;;;;;-144.24;100.00;91036.97;5016718;28;45503;-75
2024/02/20 00:52:04;;;;;;;;;16.25;14.75;;;;;-144.24;100.00;91022.81;5017852;28;45317;-74
2024/02/20 00:54:29;;;;;;;;;23.00;17.00;;;;;-144.24;100.00;91142.31;5014976;28;45536;-75
2024/02/20 00:56:54;;;;;;;;;17.00;14.00;;;;;-144.24;100.00;91235.50;5013070;28;47765;-74
2024/02/20 00:59:20;;;;;;;;;17.25;14.50;;;;;-144.24;100.00;91257.78;4998460;28;45397;-75
2024/02/20 01:01:47;;;;;;;;;12.75;10.75;;;;;-144.24;100.00;91334.78;5017908;28;65488;-74
2024/02/20 01:04:15;;;;;;;;;17.75;14.50;;;;;-144.24;100.00;91267.91;5018186;28;45338;-74
2024/02/20 01:06:40;;;;;;;;;15.00;10.00;;;;;-144.24;100.00;91448.22;5017128;28;61066;-74
2024/02/20 01:09:06;;;;;;;;;20.75;13.25;;;;;-144.24;100.00;91523.19;5015864;28;45322;-74
2024/02/20 01:11:32;;;;;;;;;20.25;13.50;;;;;-144.24;100.00;91634.59;5018327;28;45436;-75
2024/02/20 01:13:58;;;;;;;;;17.25;13.00;;;;;-144.24;100.00;91792.63;5017128;28;45475;-73
2024/02/20 01:16:23;;;;;;;;;16.25;10.75;;;;;-144.24;100.00;91794.66;5017504;28;46433;-75
2024/02/20 01:18:49;;;;;;;;;16.00;13.50;;;;;-144.24;100.00;91930.41;5016773;28;45286;-75
2024/02/20 01:21:14;;;;;;;;;24.50;18.00;;;;;-144.24;100.00;91877.72;5016660;28;66508;-74
2024/02/20 01:23:39;;;;;;;;;20.75;15.00;;;;;-144.24;100.00;91910.16;5016534;28;59038;-74
2024/02/20 01:26:05;;;;;;;;;20.00;13.75;;;;;-144.24;100.00;91989.16;5016731;28;45488;-75
2024/02/20 01:28:30;;;;;;;;;22.50;15.00;;;;;-144.24;100.00;91928.38;5016626;28;65162;-73
2024/02/20 01:30:55;;;;;;;;;20.00;15.75;;;;;-144.24;100.00;91920.28;5017960;28;45258;-73
2024/02/20 01:33:21;;;;;;;;;18.00;11.50;;;;;-144.24;100.00;91918.25;5016733;28;63387;-73
2024/02/20 01:35:46;;;;;;;;;16.50;11.50;;;;;-144.24;100.00;91881.78;5016137;28;70773;-75
2024/02/20 01:38:12;;;;;;;;;21.75;13.75;;;;;-144.24;100.00;91958.78;5015481;28;67828;-73
2024/02/20 01:40:38;;;;;;;;;19.25;15.00;;;;;-144.24;100.00;91887.84;5017291;28;45364;-74
2024/02/20 01:43:04;;;;;;;;;19.25;13.50;;;;;-144.24;100.00;91658.91;5017212;28;45550;-74
2024/02/20 01:45:30;;;;;;;;;19.25;14.75;;;;;-144.24;100.00;91835.19;5016966;28;45825;-73
2024/02/20 01:47:56;;;;;;;;;16.67;13.00;;;;;-144.24;100.00;91823.03;5017165;28;45300;-74
2024/02/20 01:50:21;;;;;;;;;21.25;14.50;;;;;-144.24;100.00;91752.09;5016752;28;45429;-73
2024/02/20 01:52:47;;;;;;;;;20.25;12.00;;;;;-144.24;100.00;91741.97;5017287;28;45581;-74
2024/02/20 01:55:12;;;;;;;;;26.25;16.00;;;;;-144.24;100.00;91754.13;5014879;28;72383;-75
2024/02/20 01:57:39;;;;;;;;;17.00;13.25;;;;;-144.24;100.00;91701.47;5016890;28;45428;-74
2024/02/20 02:00:06;;;;;;;;;22.25;15.25;;;;;-144.24;100.00;91622.44;5017031;28;45522;-74
2024/02/20 02:02:31;;;;;;;;;16.00;12.50;;;;;-144.24;100.00;91673.09;5002155;28;45469;-73
2024/02/20 02:04:57;;;;;;;;;26.25;17.75;;;;;-144.24;100.00;91780.47;5014614;28;45464;-74
2024/02/20 02:07:22;;;;;;;;;24.50;18.25;;;;;-144.24;100.00;91780.47;5015387;28;72737;-75
2024/02/20 02:09:47;;;;;;;;;20.75;15.25;;;;;-144.24;100.00;91693.34;5016301;28;56393;-73
2024/02/20 02:12:13;;;;;;;;;22.75;16.75;;;;;-144.24;100.00;91600.16;5018437;28;66471;-74
2024/02/20 02:14:47;;;;;;;;;20.25;16.25;;;;;-144.24;100.00;91551.53;5015410;28;73340;-74
2024/02/20 02:17:13;;;;;;;;;16.67;14.67;;;;;-144.24;100.00;91407.69;5016169;28;45582;-74
2024/02/20 02:19:39;;;;;;;;;18.00;14.67;;;;;-144.24;100.00;91454.28;5016871;28;45350;-74
2024/02/20 02:22:05;;;;;;;;;18.25;15.75;;;;;-144.24;100.00;91231.44;5016771;28;45450;-74
2024/02/20 02:24:30;;;;;;;;;23.75;16.50;;;;;-144.24;100.00;91290.19;5016734;28;46299;-74
2024/02/20 02:26:56;;;;;;;;;15.50;13.50;;;;;-144.24;100.00;91176.75;5016107;28;45617;-73
2024/02/20 02:29:21;;;;;;;;;19.50;12.00;;;;;-144.24;100.00;90962.03;5016510;28;46106;-75
2024/02/20 02:31:46;;;;;;;;;16.50;15.00;;;;;-144.24;100.00;90883.03;5016057;28;68113;-73
2024/02/20 02:34:12;;;;;;;;;19.75;15.50;;;;;-144.24;100.00;90777.72;5015675;28;72242;-74
2024/02/20 02:36:38;;;;;;;;;18.00;16.00;;;;;-144.24;100.00;90662.25;5021667;28;45470;-74
2024/02/20 02:39:03;;;;;;;;;22.75;17.75;;;;;-144.24;100.00;90447.56;5025060;28;45324;-73
2024/02/20 02:41:30;;;;;;;;;22.25;18.25;;;;;-144.24;100.00;90386.81;5006399;28;66976;-74
2024/02/20 02:43:55;;;;;;;;;25.25;16.75;;;;;-144.24;100.00;90188.31;5016215;28;45851;-74
2024/02/20 02:46:21;;;;;;;;;25.25;18.50;;;;;-144.24;100.00;89963.53;5016667;28;45432;-74
2024/02/20 02:48:48;;;;;;;;;22.50;15.75;;;;;-144.24;100.00;89738.75;5015472;28;60318;-74
2024/02/20 02:51:16;;;;;;;;;29.00;16.75;;;;;-144.24;100.00;89791.41;5012865;28;45348;-75
2024/02/20 02:53:42;;;;;;;;;27.75;16.75;;;;;-144.24;100.00;89576.75;5014409;28;47442;-74
2024/02/20 02:56:09;;;;;;;;;21.50;15.75;;;;;-144.24;100.00;89570.69;5014609;28;73375;-74
2024/02/20 02:58:35;;;;;;;;;30.75;21.75;;;;;-144.24;100.00;89457.28;5015513;28;45425;-74
2024/02/20 03:01:00;;;;;;;;;25.50;19.50;;;;;-144.24;100.00;89465.38;5014545;28;45504;-75
2024/02/20 03:03:26;;;;;;;;;28.00;21.50;;;;;-144.24;100.00;89372.25;4994865;28;73278;-73
2024/02/20 03:05:51;;;;;;;;;27.00;21.50;;;;;-144.24;100.00;89349.97;5012546;28;45465;-74
2024/02/20 03:08:17;;;;;;;;;23.75;19.75;;;;;-144.24;100.00;89291.25;5012924;28;45506;-73
2024/02/20 03:10:42;;;;;;;;;31.25;22.25;;;;;-144.24;100.00;89307.44;5012463;28;55620;-73
2024/02/20 03:13:08;;;;;;;;;25.75;18.00;;;;;-144.24;100.00;89347.94;5016255;28;58712;-73
2024/02/20 03:15:33;;;;;;;;;28.00;19.25;;;;;-144.24;100.00;89408.69;5015188;28;45365;-74
2024/02/20 03:17:58;;;;;;;;;24.50;19.50;;;;;-144.24;100.00;89428.94;5015152;28;61322;-74
2024/02/20 03:20:24;;;;;;;;;30.25;22.75;;;;;-144.24;100.00;89570.69;5002460;28;67019;-73
2024/02/20 03:22:49;;;;;;;;;31.50;23.00;;;;;-144.24;100.00;89487.66;5005128;28;47375;-74
2024/02/20 03:25:14;;;;;;;;;39.50;22.50;;;;;-144.24;100.00;89477.53;5007428;28;45512;-74
2024/02/20 03:27:40;;;;;;;;;26.75;21.25;;;;;-144.24;100.00;89418.81;5012721;28;45242;-75
2024/02/20 03:30:06;;;;;;;;;26.50;18.75;;;;;-144.24;100.00;89528.16;5009412;28;45280;-75
2024/02/20 03:32:32;;;;;;;;;34.00;19.75;;;;;-144.24;100.00;89479.56;5014175;28;46801;-74
2024/02/20 03:34:57;;;;;;;;;21.50;17.50;;;;;-144.24;100.00;89623.31;5012381;28;45538;-73
2024/02/20 03:37:22;;;;;;;;;26.00;21.00;;;;;-144.24;100.00;89544.34;5013761;28;45516;-74
2024/02/20 03:39:48;;;;;;;;;23.75;22.25;;;;;-144.24;100.00;89513.97;5014751;28;62746;-73
2024/02/20 03:42:17;;;;;;;;;32.00;22.50;;;;;-144.24;100.00;89588.91;5009053;28;45525;-74
2024/02/20 03:44:42;;;;;;;;;22.50;21.25;;;;;-144.24;100.00;89418.81;5014112;28;45412;-73
2024/02/20 03:47:07;;;;;;;;;25.50;22.50;;;;;-144.24;100.00;89493.72;5005900;28;45377;-73
2024/02/20 03:49:33;;;;;;;;;30.25;21.75;;;;;-144.24;100.00;89518.03;5014172;28;61604;-74
2024/02/20 03:51:58;;;;;;;;;27.25;22.50;;;;;-144.24;100.00;89607.13;5013238;28;74623;-73
2024/02/20 03:54:23;;;;;;;;;24.75;21.50;;;;;-144.24;100.00;89722.53;5002260;28;54952;-74
2024/02/20 03:56:49;;;;;;;;;32.75;23.75;;;;;-144.24;100.00;89653.69;5007444;28;67119;-73
2024/02/20 03:59:14;;;;;;;;;21.75;20.25;;;;;-144.24;100.00;89744.81;5016872;28;63867;-74
2024/02/20 04:01:39;;;;;;;;;36.50;20.75;;;;;-144.24;100.00;89653.69;5008004;28;62067;-74
2024/02/20 04:04:05;;;;;;;;;31.00;24.50;;;;;-144.24;100.00;89789.38;5011669;28;45538;-74
2024/02/20 04:06:31;;;;;;;;;29.00;18.75;;;;;-144.24;100.00;89813.66;5013790;28;45475;-74
2024/02/20 04:08:56;;;;;;;;;24.75;21.00;;;;;-144.24;100.00;89777.22;5001186;28;45400;-74
2024/02/20 04:11:21;;;;;;;;;31.00;21.75;;;;;-144.24;100.00;89961.50;5016323;28;45371;-74
2024/02/20 04:13:47;;;;;;;;;27.00;19.00;;;;;-144.24;100.00;89918.97;5012792;28;45506;-73
2024/02/20 04:16:12;;;;;;;;;23.50;20.50;;;;;-144.24;100.00;89852.16;5016938;28;45504;-73
2024/02/20 04:18:39;;;;;;;;;31.75;23.00;;;;;-144.24;100.00;89935.19;4996894;28;62862;-75
2024/02/20 04:21:04;;;;;;;;;29.00;23.25;;;;;-144.24;100.00;89896.69;5000203;28;47242;-74
2024/02/20 04:23:30;;;;;;;;;26.25;20.75;;;;;-144.24;100.00;89959.47;5018396;28;45617;-75
2024/02/20 04:25:56;;;;;;;;;31.75;22.50;;;;;-144.24;100.00;89823.78;5017718;28;67328;-74
2024/02/20 04:28:21;;;;;;;;;29.50;23.50;;;;;-144.24;100.00;89789.38;5018514;28;45308;-73
2024/02/20 04:30:47;;;;;;;;;29.25;23.00;;;;;-144.24;100.00;89874.44;5013803;28;70367;-75
2024/02/20 04:33:12;;;;;;;;;29.25;23.00;;;;;-144.24;100.00;89803.53;5011340;28;45314;-74
2024/02/20 04:35:38;;;;;;;;;33.50;25.00;;;;;-144.24;100.00;89775.19;5017602;28;45495;-74
2024/02/20 04:38:03;;;;;;;;;24.75;21.50;;;;;-144.24;100.00;89852.16;5017010;28;45413;-75
2024/02/20 04:40:28;;;;;;;;;31.75;24.50;;;;;-144.24;100.00;89791.41;5017360;28;47156;-74
2024/02/20 04:42:54;;;;;;;;;25.00;19.25;;;;;-144.24;100.00;89732.66;5013660;28;66890;-74
2024/02/20 04:45:20;;;;;;;;;22.25;18.75;;;;;-144.24;100.00;89686.09;5016765;28;45428;-75
2024/02/20 04:47:45;;;;;;;;;29.50;21.25;;;;;-144.24;100.00;89635.47;5006778;28;45325;-74
2024/02/20 04:50:10;;;;;;;;;25.50;20.00;;;;;-144.24;100.00;89929.09;5015045;28;45369;-74
2024/02/20 04:52:36;;;;;;;;;37.50;25.00;;;;;-144.24;100.00;89933.16;5009219;28;45354;-75
2024/02/20 04:55:02;;;;;;;;;28.00;23.00;;;;;-144.24;100.00;89833.91;5013280;28;47934;-74
2024/02/20 04:57:27;;;;;;;;;24.00;20.50;;;;;-144.24;100.00;89659.78;5018218;28;45497;-75
2024/02/20 04:59:53;;;;;;;;;22.50;18.50;;;;;-144.24;100.00;89781.28;5018243;28;46601;-73
2024/02/20 05:02:18;;;;;;;;;33.50;23.25;;;;;-144.24;100.00;89793.41;5024319;28;45419;-74
2024/02/20 05:04:44;;;;;;;;;34.25;20.75;;;;;-144.24;100.00;89829.88;5015742;28;62367;-74
2024/02/20 05:07:09;;;;;;;;;32.25;21.50;;;;;-144.24;100.00;89866.31;5013672;28;45265;-75
2024/02/20 05:09:35;;;;;;;;;30.50;21.75;;;;;-144.24;100.00;89694.19;5013263;28;45438;-75
2024/02/20 05:12:00;;;;;;;;;28.75;24.00;;;;;-144.24;100.00;89647.63;4997652;28;45286;-74
2024/02/20 05:14:26;;;;;;;;;31.25;25.25;;;;;-144.24;100.00;89489.69;4994888;28;45445;-73
2024/02/20 05:16:51;;;;;;;;;23.00;19.25;;;;;-144.24;100.00;89412.72;5016875;28;45357;-74
2024/02/20 05:19:16;;;;;;;;;25.50;17.25;;;;;-144.24;100.00;89228.47;4999331;28;46771;-74
2024/02/20 05:21:42;;;;;;;;;19.33;14.00;;;;;-144.24;100.00;89311.50;5013360;28;66910;-75
2024/02/20 05:24:07;;;;;;;;;18.00;16.00;;;;;-144.24;100.00;89187.97;5016533;28;45365;-72
2024/02/20 05:26:33;;;;;;;;;12.25;9.25;;;;;-144.24;100.00;88940.97;5011655;28;45386;-74
2024/02/20 05:28:58;;;;;;;;;28.00;16.50;;;;;-144.24;100.00;88862.00;5014664;28;71654;-74
2024/02/20 05:31:27;;;;;;;;;21.75;17.50;;;;;-144.24;100.00;88554.28;5016214;28;62416;-75
2024/02/20 05:33:53;;;;;;;;;18.67;14.67;;;;;-144.24;100.00;88483.44;5015085;28;45403;-73
2024/02/20 05:36:18;;;;;;;;;13.67;11.00;;;;;-144.24;100.00;88598.81;5015006;28;45528;-74
2024/02/20 05:38:44;;;;;;;;;23.75;20.50;;;;;-144.24;100.00;88438.91;5016820;28;46447;-73
2024/02/20 05:41:09;;;;;;;;;34.00;22.25;;;;;-144.24;100.00;88459.13;5015502;28;67722;-74
2024/02/20 05:43:34;;;;;;;;;25.50;17.75;;;;;-144.24;100.00;88321.50;5015286;28;68319;-73
2024/02/20 05:46:00;;;;;;;;;14.00;9.25;;;;;-144.24;100.00;88167.63;5016252;28;45618;-73
2024/02/20 05:48:25;;;;;;;;;20.50;15.00;;;;;-144.24;100.00;88129.19;4997388;28;71709;-73
2024/02/20 05:50:50;;;;;;;;;21.50;19.50;;;;;-144.24;100.00;87934.88;5004892;28;68221;-74
2024/02/20 05:53:16;;;;;;;;;29.25;20.75;;;;;-144.24;100.00;87989.50;5012051;28;51002;-73
2024/02/20 05:55:41;;;;;;;;;25.75;17.75;;;;;-144.24;100.00;87910.56;5013137;28;62852;-75
2024/02/20 05:58:07;;;;;;;;;24.00;17.00;;;;;-144.24;100.00;87823.53;5015113;28;45760;-75
2024/02/20 06:00:32;;;;;;;;;28.25;19.00;;;;;-144.24;100.00;87770.91;5016756;28;45404;-74
2024/02/20 06:02:57;;;;;;;;;27.00;19.75;;;;;-144.24;100.00;87704.13;5017124;28;57400;-73
2024/02/20 06:05:24;;;;;;;;;27.00;17.75;;;;;-144.24;100.00;87700.06;5017031;28;45401;-73
2024/02/20 06:07:49;;;;;;;;;21.25;15.00;;;;;-144.24;100.00;87564.47;5016978;28;46556;-74
2024/02/20 06:10:16;;;;;;;;;22.50;14.75;;;;;-144.24;100.00;87475.41;5015458;28;45505;-74
2024/02/20 06:12:41;;;;;;;;;23.25;16.00;;;;;-144.24;100.00;87560.41;5022877;28;45363;-74
2024/02/20 06:15:07;;;;;;;;;18.67;17.00;;;;;-144.24;100.00;87536.13;5016552;28;45555;-74
2024/02/20 06:17:32;;;;;;;;;19.50;15.50;;;;;-144.24;100.00;87471.38;5016554;28;45320;-73
2024/02/20 06:19:57;;;;;;;;;22.25;15.75;;;;;-144.24;100.00;87592.81;5015174;28;58981;-74
2024/02/20 06:22:23;;;;;;;;;19.25;12.75;;;;;-144.24;100.00;87789.13;5015134;28;65980;-74
2024/02/20 06:24:48;;;;;;;;;17.00;15.00;;;;;-144.24;100.00;87574.59;5016677;28;56491;-73
2024/02/20 06:27:13;;;;;;;;;15.25;12.00;;;;;-144.24;100.00;87560.41;5014462;28;74492;-75
2024/02/20 06:29:39;;;;;;;;;15.75;13.25;;;;;-144.24;100.00;87696.03;5009978;28;70663;-75
2024/02/20 06:32:05;;;;;;;;;20.00;13.50;;;;;-144.24;100.00;87588.75;5016523;28;45409;-74
2024/02/20 06:34:30;;;;;;;;;13.50;13.50;;;;;-144.24;100.00;87534.09;5016834;28;45557;-74
2024/02/20 06:36:55;;;;;;;;;17.25;14.25;;;;;-144.24;100.00;87598.88;5003622;28;74852;-74
2024/02/20 06:39:21;;;;;;;;;23.50;15.75;;;;;-144.24;100.00;87760.78;5016401;28;45237;-75
2024/02/20 06:41:46;;;;;;;;;24.75;15.25;;;;;-144.24;100.00;87888.31;5016613;28;45440;-74
2024/02/20 06:44:11;;;;;;;;;19.25;15.50;;;;;-144.24;100.00;87920.69;5016480;28;46606;-73
2024/02/20 06:46:40;;;;;;;;;19.25;14.75;;;;;-144.24;100.00;87774.97;5015718;28;46895;-74
2024/02/20 06:49:05;;;;;;;;;23.50;19.00;;;;;-144.24;100.00;87926.78;5016570;28;45456;-74
2024/02/20 06:51:31;;;;;;;;;20.75;14.50;;;;;-144.24;100.00;87912.59;5015094;28;66277;-75
2024/02/20 06:53:56;;;;;;;;;20.50;16.50;;;;;-144.24;100.00;87991.53;5014673;28;63337;-76
2024/02/20 06:56:22;;;;;;;;;29.25;19.75;;;;;-144.24;100.00;88027.97;5007997;28;45817;-74
2024/02/20 06:58:47;;;;;;;;;23.25;18.75;;;;;-144.24;100.00;88157.53;5014421;28;45324;-75
2024/02/20 07:01:13;;;;;;;;;24.25;17.75;;;;;-144.24;100.00;88258.72;5015983;28;45384;-74
2024/02/20 07:03:38;;;;;;;;;20.50;14.75;;;;;-144.24;100.00;88295.16;5014202;28;60809;-74
2024/02/20 07:06:03;;;;;;;;;20.50;16.00;;;;;-144.24;100.00;88339.69;5012051;28;68322;-76
2024/02/20 07:08:29;;;;;;;;;19.50;19.25;;;;;-144.24;100.00;88422.69;5015957;28;45431;-76
2024/02/20 07:10:54;;;;;;;;;15.75;13.50;;;;;-144.24;100.00;88416.63;5014531;28;67787;-76
2024/02/20 07:13:20;;;;;;;;;21.75;15.75;;;;;-144.24;100.00;88552.25;5022905;28;46286;-75
2024/02/20 07:15:45;;;;;;;;;21.25;16.50;;;;;-144.24;100.00;88473.31;5015659;28;46517;-75
2024/02/20 07:18:11;;;;;;;;;20.00;15.25;;;;;-144.24;100.00;88477.38;5013858;28;66246;-75
2024/02/20 07:20:36;;;;;;;;;20.00;16.75;;;;;-144.24;100.00;88554.28;5013240;28;45515;-74
2024/02/20 07:23:02;;;;;;;;;21.25;14.00;;;;;-144.24;100.00;88507.72;5011677;28;45595;-74
2024/02/20 07:25:28;;;;;;;;;20.50;15.25;;;;;-144.24;100.00;88675.75;5012872;28;45534;-74
2024/02/20 07:27:53;;;;;;;;;25.00;19.50;;;;;-144.24;100.00;88574.53;5012737;28;45500;-72
2024/02/20 07:30:19;;;;;;;;;13.33;12.33;;;;;-144.24;100.00;88588.69;4993307;28;45562;-71
2024/02/20 07:32:44;;;;;;;;;26.00;19.75;;;;;-144.24;100.00;88675.75;4988896;28;45753;-71
2024/02/20 07:35:20;;;;;;;;;17.25;16.00;;;;;-144.24;100.00;88384.25;5013121;28;72131;-71
2024/02/20 07:37:45;;;;;;;;;17.75;15.00;;;;;-144.24;100.00;88578.56;5015761;28;45421;-71
2024/02/20 07:40:11;;;;;;;;;22.75;20.50;;;;;-144.24;100.00;88619.06;5019093;28;45270;-71
2024/02/20 07:42:38;;;;;;;;;24.25;18.25;;;;;-144.24;100.00;88698.03;5019635;28;46064;-72
2024/02/20 07:45:03;;;;;;;;;19.25;16.50;;;;;-144.24;100.00;88750.66;5018841;28;46219;-71
2024/02/20 07:47:29;;;;;;;;;21.00;19.00;;;;;-144.24;100.00;88839.75;5018793;28;45365;-69
2024/02/20 07:49:54;;;;;;;;;18.75;13.50;;;;;-144.24;100.00;88916.69;5018625;28;52086;-70
2024/02/20 07:52:19;;;;;;;;;24.50;15.75;;;;;-144.24;100.00;89032.06;5018976;28;50818;-71
2024/02/20 07:54:45;;;;;;;;;14.67;13.67;;;;;-144.24;100.00;89149.50;5018790;28;46330;-71
2024/02/20 07:57:10;;;;;;;;;25.67;19.00;;;;;-144.24;100.00;89192.03;5018832;28;48042;-71
2024/02/20 07:59:36;;;;;;;;;21.00;16.00;;;;;-144.24;100.00;89254.78;5018530;28;45273;-72
2024/02/20 08:02:07;;;;;;;;;20.25;19.75;;;;;-144.24;100.00;89445.13;4998789;28;65313;-70
2024/02/20 08:04:33;;;;;;;;;20.75;16.00;;;;;-144.24;100.00;89487.66;5018652;28;46643;-71
2024/02/20 08:06:58;;;;;;;;;17.00;15.00;;;;;-144.24;100.00;89675.97;5014608;28;45354;-73
2024/02/20 08:09:23;;;;;;;;;23.75;16.75;;;;;-144.24;100.00;89886.56;5015441;28;64568;-74
2024/02/20 08:11:49;;;;;;;;;21.00;17.75;;;;;-144.24;100.00;89884.53;5022154;28;46181;-73
2024/02/20 08:14:15;;;;;;;;;20.25;16.00;;;;;-144.24;100.00;89977.69;5013036;28;46308;-74
2024/02/20 08:16:41;;;;;;;;;18.50;15.50;;;;;-144.24;100.00;89981.75;5011646;28;45475;-73
2024/02/20 08:19:06;;;;;;;;;16.67;9.00;;;;;-144.24;100.00;89983.78;5008611;28;45569;-76
2024/02/20 08:21:32;;;;;;;;;20.33;17.00;;;;;-144.24;100.00;90074.91;5004363;28;62140;-73
2024/02/20 08:23:58;;;;;;;;;17.00;14.00;;;;;-144.24;100.00;89989.84;5007832;28;46934;-75
2024/02/20 08:26:24;;;;;;;;;21.75;16.00;;;;;-144.24;100.00;89837.97;4999268;28;45438;-72
2024/02/20 08:28:49;;;;;;;;;20.50;14.25;;;;;-144.24;100.00;89763.03;5008945;28;45374;-76
2024/02/20 08:31:18;;;;;;;;;13.67;12.00;;;;;-144.24;100.00;89530.16;4986005;28;61592;-74
2024/02/20 08:33:44;;;;;;;;;19.33;13.33;;;;;-144.24;100.00;89183.94;5006696;28;45819;-74
2024/02/20 08:36:09;;;;;;;;;15.67;13.00;;;;;-144.24;100.00;89169.75;5013801;28;45478;-74
2024/02/20 08:38:35;;;;;;;;;26.67;17.33;;;;;-144.24;100.00;88930.84;5003759;28;45340;-73
2024/02/20 08:41:00;;;;;;;;;24.33;18.33;;;;;-144.24;100.00;88681.81;5001720;28;62524;-73
2024/02/20 08:43:26;;;;;;;;;19.33;17.00;;;;;-144.24;100.00;88400.44;5003601;28;75217;-74
2024/02/20 08:45:51;;;;;;;;;16.67;11.33;;;;;-144.24;100.00;88218.25;5014884;28;45265;-75
2024/02/20 08:48:16;;;;;;;;;13.67;13.67;;;;;-144.24;100.00;88021.91;5010846;28;45370;-74
2024/02/20 08:50:41;;;;;;;;;19.00;14.67;;;;;-144.24;100.00;87768.88;5001858;28;65185;-73
2024/02/20 08:53:10;;;;;;;;;14.67;11.67;;;;;-144.24;100.00;87517.91;5005017;28;73889;-73
2024/02/20 08:55:38;;;;;;;;;15.33;13.33;;;;;-144.24;100.00;87181.97;5003259;28;45626;-74
2024/02/20 08:58:04;;;;;;;;;17.00;15.67;;;;;-144.24;100.00;87111.13;5004840;28;45501;-73
2024/02/20 09:00:30;;;;;;;;;18.33;15.33;;;;;-144.24;100.00;87032.22;5007262;28;45514;-73
2024/02/20 09:02:57;;;;;;;;;18.00;15.33;;;;;-144.24;100.00;86963.41;5008415;28;45776;-73
2024/02/20 09:05:23;;;;;;;;;18.33;13.33;;;;;-144.24;100.00;86763.06;5005840;28;45503;-74
2024/02/20 09:07:49;;;;;;;;;23.00;16.75;;;;;-144.24;100.00;86740.81;4998409;28;45377;-73
2024/02/20 09:10:14;;;;;;;;;16.00;13.25;;;;;-144.24;100.00;86783.31;5015875;28;51355;-74
2024/02/20 09:12:39;;;;;;;;;23.00;19.00;;;;;-144.24;100.00;86831.88;5017292;28;63983;-73
2024/02/20 09:15:05;;;;;;;;;17.00;15.00;;;;;-144.24;100.00;86878.41;4995799;28;45568;-74
2024/02/20 09:17:31;;;;;;;;;19.75;15.50;;;;;-144.24;100.00;86918.88;5011319;28;45440;-74
2024/02/20 09:19:56;;;;;;;;;13.00;13.00;;;;;-144.24;100.00;87007.94;5014667;28;45495;-74
2024/02/20 09:22:22;;;;;;;;;12.33;10.00;;;;;-144.24;100.00;86912.81;5017084;28;45705;-74
2024/02/20 09:24:47;;;;;;;;;11.00;7.00;;;;;-144.24;100.00;87216.38;5016935;28;45627;-73
2024/02/20 09:27:12;;;;;;;;;16.67;15.33;;;;;-144.24;100.00;87485.53;5016937;28;45531;-73
2024/02/20 09:29:38;;;;;;;;;13.33;11.00;;;;;-144.24;100.00;88011.78;5016763;28;45551;-72
2024/02/20 09:32:03;;;;;;;;;14.67;11.67;;;;;-144.24;100.00;88313.38;5016616;28;46486;-73
2024/02/20 09:34:29;;;;;;;;;14.33;8.00;;;;;-144.24;100.00;88538.09;5010701;28;45499;-73
2024/02/20 09:36:54;;;;;;;;;17.67;13.33;;;;;-144.24;100.00;88558.34;5016575;28;55848;-74
2024/02/20 09:39:23;;;;;;;;;16.00;11.00;;;;;-144.24;100.00;88961.22;5015512;28;67307;-73
2024/02/20 09:41:50;;;;;;;;;17.67;12.67;;;;;-144.24;100.00;88752.69;5016916;28;45992;-74
2024/02/20 09:44:17;;;;;;;;;18.33;14.33;;;;;-144.24;100.00;88841.75;5010374;28;45445;-74
2024/02/20 09:46:55;;;;;;;;;16.67;11.33;;;;;-144.24;100.00;88689.94;5016880;28;45239;-73
2024/02/20 09:49:20;;;;;;;;;16.00;10.67;;;;;-144.24;100.00;88750.66;5016550;28;45392;-74
2024/02/20 09:51:49;;;;;;;;;19.67;12.33;;;;;-144.24;100.00;88908.56;5016842;28;46093;-72
2024/02/20 09:54:15;;;;;;;;;8.67;4.33;;;;;-144.24;100.00;89082.69;5016741;28;45302;-73
2024/02/20 09:56:41;;;;;;;;;15.67;14.00;;;;;-144.24;100.00;89279.09;5016289;28;46641;-73
2024/02/20 09:59:08;;;;;;;;;16.00;13.00;;;;;-144.24;100.00;89414.75;5019667;28;45332;-73
2024/02/20 10:01:34;;;;;;;;;12.67;12.33;;;;;-144.24;100.00;89491.69;5016532;28;47734;-73
2024/02/20 10:04:03;;;;;;;;;16.25;14.75;;;;;-144.24;100.00;89465.38;4995202;28;45271;-73
2024/02/20 10:06:30;;;;;;;;;11.25;11.00;;;;;-144.24;100.00;89471.44;5013920;28;45226;-74
2024/02/20 10:08:56;;;;;;;;;15.50;11.50;;;;;-144.24;100.00;89645.59;5016410;28;46638;-73
2024/02/20 10:11:21;;;;;;;;;20.67;14.67;;;;;-144.24;100.00;89538.28;5013303;28;46414;-73
2024/02/20 10:13:51;;;;;;;;;15.00;15.00;;;;;-144.24;100.00;89694.19;5016984;28;46031;-73
2024/02/20 10:16:16;;;;;;;;;18.00;14.00;;;;;-144.24;100.00;89923.03;4992935;28;45595;-73
2024/02/20 10:19:05;;;;;;;;;17.33;15.67;;;;;-144.24;100.00;90012.13;5020447;28;45618;-73
2024/02/20 10:21:30;;;;;;;;;21.33;17.00;;;;;-144.24;100.00;90196.44;5001944;28;46594;-74
2024/02/20 10:24:15;;;;;;;;;16.33;15.00;;;;;-144.24;100.00;90243.00;5004425;28;45577;-73
2024/02/20 10:26:44;;;;;;;;;12.00;8.00;;;;;-144.24;100.00;90342.25;5016288;28;45366;-73
2024/02/20 10:29:09;;;;;;;;;23.33;14.00;;;;;-144.24;100.00;90415.16;5015676;28;45547;-73
2024/02/20 10:31:36;;;;;;;;;15.00;11.67;;;;;-144.24;100.00;90400.97;4997396;28;46829;-74
2024/02/20 10:34:02;;;;;;;;;9.67;8.00;;;;;-144.24;100.00;90174.16;5000686;28;46465;-73
2024/02/20 10:36:27;;;;;;;;;14.67;11.00;;;;;-144.24;100.00;90311.88;5014516;28;45368;-74
2024/02/20 10:39:05;;;;;;;;;13.33;9.33;;;;;-144.24;100.00;90273.38;5016388;28;45297;-74
2024/02/20 10:41:32;;;;;;;;;13.00;11.67;;;;;-144.24;100.00;90627.81;4984030;28;46373;-74
2024/02/20 10:43:57;;;;;;;;;21.00;10.00;;;;;-144.24;100.00;90498.19;5016218;28;45448;-73
2024/02/20 10:46:23;;;;;;;;;17.00;12.00;;;;;-144.24;100.00;90696.69;5012360;28;45488;-74
2024/02/20 10:48:50;;;;;;;;;10.33;9.67;;;;;-144.24;100.00;90844.56;4995953;28;45364;-74